Flight Track Log - Related Links

Times and Time Zones

All times are in EDT time to prevent confusion due to time zone crossing. See the SWA2975 flight status page for this flight to view local times or setup timezone preferences in your user account.

Time Position Orientation Groundspeed Altitude Reporting Facility
EDT Latitude Longitude Course Direction KTS MPH feet Rate Location/Type
Thu 10:27:04 PM 41.7680 -87.7700 221° Southwest 151 174 2,000  Level FlightAware ADS-B
Thu 10:27:29 PM 41.7500 -87.7620 162° South 210 242 2,300 1,174 Climbing FlightAware ADS-B
Thu 10:27:50 PM 41.7420 -87.7330 110° East 237 273 2,900 1,071 Climbing FlightAware ADS-B
Thu 10:28:25 PM 41.7450 -87.6830 85° East 237 273 3,300 1,729 Climbing FlightAware ADS-B
Thu 10:28:49 PM 41.7470 -87.6480 86° East 238 274 4,600 3,000 Climbing FlightAware ADS-B
Thu 10:29:01 PM 41.7470 -87.6300 90° East 253 291 5,100 3,000 Climbing FlightAware ADS-B
Thu 10:29:31 PM 41.7490 -87.5780 87° East 277 319 6,700 3,333 Climbing FlightAware ADS-B
Thu 10:29:55 PM 41.7510 -87.5390 86° East 284 327 8,100 3,577 Climbing FlightAware ADS-B
Thu 10:30:23 PM 41.7530 -87.4880 87° East 295 339 9,800 3,529 Climbing FlightAware ADS-B
Thu 10:31:03 PM 41.7540 -87.4150 89° East 304 350 12,100 3,439 Climbing FlightAware ADS-B
Thu 10:31:45 PM 41.7560 -87.3370 88° East 310 357 14,500 2,581 Climbing FlightAware ADS-B
Thu 10:32:29 PM 41.7580 -87.2400 88° East 359 413 15,800 2,302 Climbing FlightAware ADS-B
Thu 10:33:11 PM 41.7600 -87.1480 88° East 372 428 17,800 2,780 Climbing FlightAware ADS-B
Thu 10:33:51 PM 41.7630 -87.0510 88° East 384 442 19,600 2,400 Climbing FlightAware ADS-B
Thu 10:34:31 PM 41.7860 -86.9590 71° East 406 467 21,000 2,000 Climbing FlightAware ADS-B
Thu 10:35:09 PM 41.8130 -86.8660 69° East 427 491 22,200 1,975 Climbing FlightAware ADS-B
Thu 10:35:50 PM 41.8410 -86.7690 69° East 438 504 23,600 1,829 Climbing FlightAware ADS-B
Thu 10:36:31 PM 41.8740 -86.6630 67° East 456 525 24,700 1,558 Climbing FlightAware ADS-B
Thu 10:37:07 PM 41.9040 -86.5660 67° East 474 545 25,600 2,000 Climbing FlightAware ADS-B
Thu 10:37:52 PM 41.9440 -86.4450 66° East 471 542 27,400 2,643 Climbing FlightAware ADS-B
Thu 10:38:31 PM 41.9800 -86.3430 65° Northeast 457 526 29,300 1,735 Climbing FlightAware ADS-B
Thu 10:39:15 PM 42.0070 -86.2240 73° East 457 526 29,800 786 Climbing FlightAware ADS-B
Thu 10:39:55 PM 42.0120 -86.1060 87° East 469 540 30,400 1,143 Climbing FlightAware ADS-B
Thu 10:40:39 PM 42.0200 -85.9790 85° East 476 548 31,400 1,429 Climbing FlightAware ADS-B
Thu 10:41:19 PM 42.0260 -85.8630 86° East 474 545 32,400 1,500 Climbing FlightAware ADS-B
Thu 10:41:55 PM 42.0320 -85.7560 86° East 476 548 33,300 1,360 Climbing FlightAware ADS-B
Thu 10:42:34 PM 42.0380 -85.6390 86° East 479 551 34,100 1,059 Climbing FlightAware ADS-B
Thu 10:43:20 PM 42.0450 -85.5050 86° East 486 559 34,800 1,024 Climbing FlightAware ADS-B
Thu 10:43:56 PM 42.0500 -85.3920 87° East 490 564 35,500 1,151 Climbing FlightAware ADS-B
Thu 10:44:33 PM 42.0560 -85.2830 86° East 490 564 36,200 1,024 Climbing FlightAware ADS-B
Thu 10:45:18 PM 42.0630 -85.1430 86° East 491 565 36,900 545 Climbing FlightAware ADS-B
Thu 10:46:01 PM 42.0690 -85.0090 87° East 492 566 37,000 61 Climbing FlightAware ADS-B
Thu 10:46:57 PM 42.0760 -84.8460 87° East 488 562 37,000  Level FlightAware ADS-B
Thu 10:47:34 PM 42.0810 -84.7280 87° East 487 560 37,000  Level FlightAware ADS-B
Thu 10:48:21 PM 42.0870 -84.5910 87° East 486 559 37,000  Level FlightAware ADS-B
Thu 10:49:01 PM 42.0920 -84.4660 87° East 484 557 37,000  Level FlightAware ADS-B
Thu 10:49:45 PM 42.0980 -84.3390 86° East 482 555 37,000  Level FlightAware ADS-B
Thu 10:50:23 PM 42.1020 -84.2270 87° East 482 555 37,000  Level FlightAware ADS-B
Thu 10:51:04 PM 42.1060 -84.1370 87° East 483 556 37,000  Level FlightAware ADS-B
Thu 10:51:51 PM 42.1120 -83.9570 87° East 486 559 37,000  Level FlightAware ADS-B
Thu 10:52:27 PM 42.1160 -83.8560 87° East 486 559 37,000  Level FlightAware ADS-B
Thu 10:53:13 PM 42.1210 -83.7100 87° East 487 560 37,000  Level FlightAware ADS-B
Thu 10:53:51 PM 42.1250 -83.5980 87° East 488 562 37,000  Level FlightAware ADS-B
Thu 10:54:36 PM 42.1300 -83.4580 87° East 489 563 37,000  Level FlightAware ADS-B
Thu 10:55:21 PM 42.1340 -83.3210 88° East 490 564 37,000  Level FlightAware ADS-B
Thu 10:56:15 PM 42.1390 -83.1570 88° East 492 566 37,000  Level FlightAware ADS-B
Thu 10:56:57 PM 42.1430 -83.0270 88° East 493 567 37,000  Level FlightAware ADS-B
Thu 10:57:37 PM 42.1460 -82.9050 88° East 494 568 37,000  Level FlightAware ADS-B
Thu 10:58:20 PM 42.1500 -82.7770 88° East 495 570 37,000  Level FlightAware ADS-B
Thu 10:59:02 PM 42.1530 -82.6440 88° East 495 570 37,000  Level FlightAware ADS-B
Thu 10:59:46 PM 42.1570 -82.5090 88° East 496 571 37,000  Level FlightAware ADS-B
Thu 11:00:24 PM 42.1590 -82.3990 89° East 496 571 37,000  Level FlightAware ADS-B
Thu 11:01:10 PM 42.1620 -82.2550 88° East 495 570 37,000  Level FlightAware ADS-B
Thu 11:01:50 PM 42.1650 -82.1320 88° East 494 568 37,000  Level FlightAware ADS-B
Thu 11:02:34 PM 42.1680 -81.9920 88° East 494 568 37,000  Level FlightAware ADS-B
Thu 11:03:14 PM 42.1700 -81.8750 89° East 494 568 37,000  Level FlightAware ADS-B
Thu 11:03:58 PM 42.1730 -81.7390 88° East 495 570 37,000  Level FlightAware ADS-B
Thu 11:04:38 PM 42.1750 -81.6130 89° East 495 570 37,000  Level FlightAware ADS-B
Thu 11:05:24 PM 42.1830 -81.4700 86° East 501 577 37,000  Level FlightAware ADS-B
Thu 11:06:02 PM 42.1950 -81.3530 82° East 501 577 37,000  Level FlightAware ADS-B
Thu 11:06:40 PM 42.2080 -81.2350 82° East 502 578 37,000  Level FlightAware ADS-B
Thu 11:07:20 PM 42.2210 -81.1110 82° East 501 577 37,000  Level FlightAware ADS-B
Thu 11:08:04 PM 42.2350 -80.9750 82° East 500 575 37,000  Level FlightAware ADS-B
Thu 11:08:44 PM 42.2480 -80.8520 82° East 500 575 37,000  Level FlightAware ADS-B
Thu 11:09:28 PM 42.2610 -80.7180 82° East 499 574 37,000  Level FlightAware ADS-B
Thu 11:10:04 PM 42.2720 -80.6150 82° East 499 574 37,000  Level FlightAware ADS-B
Thu 11:10:52 PM 42.2870 -80.4590 83° East 499 574 37,000  Level FlightAware ADS-B
Thu 11:11:27 PM 42.2980 -80.3520 82° East 499 574 37,000  Level FlightAware ADS-B
Thu 11:12:08 PM 42.3100 -80.2240 83° East 499 574 37,000  Level FlightAware ADS-B
Thu 11:12:52 PM 42.3230 -80.0870 83° East 499 574 37,000  Level FlightAware ADS-B
Thu 11:13:27 PM 42.3330 -79.9870 82° East 499 574 37,000  Level FlightAware ADS-B
Thu 11:14:16 PM 42.3470 -79.8390 83° East 501 577 37,000  Level FlightAware ADS-B
Thu 11:14:53 PM 42.3580 -79.7140 83° East 502 578 37,000  Level FlightAware ADS-B
Thu 11:15:38 PM 42.3710 -79.5770 83° East 504 580 37,000  Level FlightAware ADS-B
Thu 11:16:13 PM 42.3800 -79.4700 83° East 505 581 37,000  Level FlightAware ADS-B
Thu 11:16:55 PM 42.3930 -79.3330 83° East 506 582 37,000  Level FlightAware ADS-B
Thu 11:17:35 PM 42.4040 -79.2060 83° East 506 582 37,000  Level FlightAware ADS-B
Thu 11:18:19 PM 42.4160 -79.0710 83° East 505 581 37,000  Level FlightAware ADS-B
Thu 11:18:55 PM 42.4260 -78.9550 83° East 504 580 37,000  Level FlightAware ADS-B
Thu 11:19:35 PM 42.4360 -78.8330 84° East 501 577 37,000  Level FlightAware ADS-B
Thu 11:20:15 PM 42.4460 -78.7070 84° East 500 575 37,000  Level FlightAware ADS-B
Thu 11:21:01 PM 42.4580 -78.5640 83° East 499 574 37,000  Level FlightAware ADS-B
Thu 11:21:39 PM 42.4680 -78.4470 83° East 498 573 37,000  Level FlightAware ADS-B
Thu 11:22:25 PM 42.4790 -78.3030 84° East 497 572 37,000  Level FlightAware ADS-B
Thu 11:23:05 PM 42.4890 -78.1830 84° East 496 571 37,000  Level FlightAware ADS-B
Thu 11:23:37 PM 42.4970 -78.0830 84° East 495 570 37,000  Level FlightAware ADS-B
Thu 11:24:23 PM 42.5070 -77.9430 84° East 493 567 37,000 -419 Level FlightAware ADS-B
Thu 11:25:03 PM 42.5160 -77.8210 84° East 492 566 36,400 -973 Descending FlightAware ADS-B
Thu 11:25:37 PM 42.5240 -77.7180 84° East 491 565 35,800 -947 Descending FlightAware ADS-B
Thu 11:26:19 PM 42.5330 -77.5950 84° East 493 567 35,200 -966 Descending FlightAware ADS-B
Thu 11:27:04 PM 42.5440 -77.4470 84° East 491 565 34,400 -988 Descending FlightAware ADS-B
Thu 11:27:44 PM 42.5520 -77.3250 85° East 491 565 33,800 -975 Descending FlightAware ADS-B
Thu 11:28:24 PM 42.5610 -77.2030 84° East 491 565 33,100 -1,000 Descending FlightAware ADS-B
Thu 11:29:08 PM 42.5700 -77.0690 85° East 492 566 32,400 -933 Descending FlightAware ADS-B
Thu 11:29:54 PM 42.5800 -76.9300 84° East 482 555 31,700 -1,024 Descending FlightAware ADS-B
Thu 11:30:30 PM 42.5870 -76.8210 85° East 479 551 31,000 -1,054 Descending FlightAware ADS-B
Thu 11:31:08 PM 42.5950 -76.7090 84° East 476 548 30,400 -1,024 Descending FlightAware ADS-B
Thu 11:31:52 PM 42.6030 -76.5790 85° East 466 536 29,600 -1,000 Descending FlightAware ADS-B
Thu 11:32:32 PM 42.6100 -76.4630 85° East 462 532 29,000 -474 Descending FlightAware ADS-B
Thu 11:33:08 PM 42.6170 -76.3580 85° East 461 531 29,000  Level FlightAware ADS-B
Thu 11:33:52 PM 42.6240 -76.2340 86° East 461 531 29,000  Level FlightAware ADS-B
Thu 11:34:28 PM 42.6310 -76.1260 85° East 484 557 29,000  Level FlightAware ADS-B
Thu 11:35:12 PM 42.6390 -75.9910 85° East 496 571 29,000  Level FlightAware ADS-B
Thu 11:35:56 PM 42.6470 -75.8530 85° East 495 570 29,000  Level FlightAware ADS-B
Thu 11:36:38 PM 42.6540 -75.7250 86° East 496 571 29,000 -419 Level FlightAware ADS-B
Thu 11:37:22 PM 42.6620 -75.5850 86° East 503 579 28,400 -1,105 Descending FlightAware ADS-B
Thu 11:37:54 PM 42.6680 -75.4870 85° East 504 580 27,600 -2,447 Descending FlightAware ADS-B
Thu 11:38:38 PM 42.6750 -75.3480 86° East 496 571 25,300 -3,073 Descending FlightAware ADS-B
Thu 11:39:16 PM 42.6810 -75.2310 86° East 485 558 23,400 -2,921 Descending FlightAware ADS-B
Thu 11:39:54 PM 42.6870 -75.1160 86° East 474 545 21,600 -2,846 Descending FlightAware ADS-B
Thu 11:40:34 PM 42.6930 -75.0020 86° East 461 531 19,700 -2,857 Descending FlightAware ADS-B
Thu 11:41:18 PM 42.6990 -74.8760 86° East 446 513 17,600 -2,925 Descending FlightAware ADS-B
Thu 11:41:54 PM 42.7040 -74.7760 86° East 439 505 15,800 -2,873 Descending FlightAware ADS-B
Thu 11:42:29 PM 42.7090 -74.6840 86° East 435 501 14,200 -1,116 Descending FlightAware ADS-B
Thu 11:43:20 PM 42.7150 -74.5650 86° East 435 501 14,200  Level FlightAware ADS-B
Thu 11:43:56 PM 42.7190 -74.4820 86° East 435 501 14,200 -1,993 Level FlightAware ADS-B
Thu 11:47:18 PM 42.8110 -74.0640 73° East 6,300 -2,302 Descending FlightAware ADS-B
Thu 11:47:48 PM 42.8300 -74.0050 66° East 283 326 5,300 -2,522 Descending FlightAware ADS-B
Thu 11:48:27 PM 42.8480 -73.9480 67° East 284 327 3,400 -2,535 Descending FlightAware ADS-B
Thu 11:48:59 PM 42.8640 -73.8890 70° East 273 314 2,300 -1,500 Descending FlightAware ADS-B
Thu 11:49:11 PM 42.8660 -73.8730 80° East 236 272 2,300  Level FlightAware ADS-B
Thu 11:49:36 PM 42.8690 -73.8420 82° East 236 272 2,300 -304 Level FlightAware ADS-B
Thu 11:50:30 PM 42.8403 -73.8050 82° East 151 174 1,900 -632 Descending Boston Center
Thu 11:51:30 PM 42.7964 -73.8097 185° South 140 161 1,100 -288 Descending Boston Center
Thu 11:52:56 PM 42.8558 -73.7147 49° Northeast 62 71 1,200 70 Climbing Boston Center

Login

Don't have an account? Register now (free) for customized features, flight alerts, and more!